Time;durP1;ratioP1;P1;durP2;ratioP2;P2;SDS_P1;SDS_P2;PMS_P1;PMS_P2;Temp;Humidity;BMP_temperature;BMP_pressure;BME280_temperature;BME280_humidity;BME280_pressure;Samples;Min_cycle;Max_cycle;Signal;HPM_P1;HPM_P2
2022/07/10 00:01:50;;;;;;;3.22;1.80;;;17.80;77.70;;;;;;5045572;28;20059;-70
2022/07/10 00:04:18;;;;;;;3.45;1.73;;;17.80;77.70;;;;;;5050026;28;20745;-69
2022/07/10 00:06:46;;;;;;;3.90;2.08;;;17.70;77.80;;;;;;5058988;28;20170;-70
2022/07/10 00:09:13;;;;;;;4.22;1.80;;;17.70;77.70;;;;;;5055225;28;20490;-70
2022/07/10 00:11:40;;;;;;;3.22;1.90;;;17.70;77.70;;;;;;5049489;28;20047;-71
2022/07/10 00:14:07;;;;;;;3.20;1.80;;;17.60;77.60;;;;;;5047778;28;20045;-71
2022/07/10 00:16:34;;;;;;;2.97;1.42;;;17.60;77.50;;;;;;5059035;28;20135;-71
2022/07/10 00:19:03;;;;;;;4.43;1.80;;;17.60;77.60;;;;;;5059222;28;20102;-70
2022/07/10 00:21:30;;;;;;;4.40;1.75;;;17.60;77.40;;;;;;5052634;28;20124;-70
2022/07/10 00:23:57;;;;;;;4.47;1.70;;;17.60;77.20;;;;;;5047520;28;20118;-71
2022/07/10 00:26:24;;;;;;;3.83;1.58;;;17.60;77.00;;;;;;5056916;28;20040;-71
2022/07/10 00:28:51;;;;;;;5.13;1.63;;;17.50;76.90;;;;;;5049665;28;20036;-71
2022/07/10 00:31:17;;;;;;;3.78;1.50;;;17.50;76.90;;;;;;5047450;28;20051;-72
2022/07/10 00:33:44;;;;;;;3.50;1.50;;;17.40;76.90;;;;;;5054570;28;20052;-71
2022/07/10 00:36:13;;;;;;;3.95;1.52;;;17.30;76.80;;;;;;5060410;28;20053;-71
2022/07/10 00:38:40;;;;;;;4.80;1.35;;;17.30;76.50;;;;;;5058025;28;20045;-68
2022/07/10 00:41:07;;;;;;;3.30;1.13;;;17.30;76.40;;;;;;5056782;28;20068;-69
2022/07/10 00:43:52;;;;;;;2.97;1.08;;;17.20;76.20;;;;;;5059937;28;20045;-70
2022/07/10 00:46:20;;;;;;;3.30;0.90;;;17.10;76.20;;;;;;5050464;28;20318;-69
2022/07/10 00:48:47;;;;;;;3.25;1.17;;;17.10;76.00;;;;;;5041371;28;20096;-71
2022/07/10 00:51:17;;;;;;;3.92;1.08;;;17.10;76.00;;;;;;5053235;28;20182;-69
2022/07/10 00:53:45;;;;;;;2.20;1.08;;;17.00;76.00;;;;;;5046902;28;20049;-71
2022/07/10 00:56:12;;;;;;;3.17;1.00;;;17.00;75.90;;;;;;5057707;28;20110;-71
2022/07/10 00:58:41;;;;;;;2.15;0.80;;;17.00;75.90;;;;;;5052508;28;20048;-72
2022/07/10 01:01:08;;;;;;;1.75;0.90;;;17.00;75.70;;;;;;5053223;28;21013;-72
2022/07/10 01:03:35;;;;;;;2.72;0.95;;;16.90;75.80;;;;;;5060166;28;20143;-70
2022/07/10 01:06:02;;;;;;;3.47;0.90;;;16.80;75.80;;;;;;5056235;28;20049;-69
2022/07/10 01:08:30;;;;;;;3.92;0.95;;;16.70;75.90;;;;;;5059207;28;20580;-70
2022/07/10 01:10:58;;;;;;;4.47;0.98;;;16.70;75.90;;;;;;5057212;28;20049;-69
2022/07/10 01:13:25;;;;;;;1.90;0.80;;;16.80;75.60;;;;;;5058744;28;20045;-67
2022/07/10 01:15:53;;;;;;;5.00;1.10;;;16.70;75.40;;;;;;5057004;28;20057;-70
2022/07/10 01:18:20;;;;;;;2.67;0.90;;;16.70;75.40;;;;;;5057546;28;20048;-71
2022/07/10 01:20:47;;;;;;;5.43;1.63;;;16.60;75.50;;;;;;5056963;28;20134;-69
2022/07/10 01:23:15;;;;;;;3.35;1.02;;;16.60;75.40;;;;;;5056938;28;20049;-68
2022/07/10 01:25:42;;;;;;;2.85;0.93;;;16.60;75.50;;;;;;5055312;28;20057;-69
2022/07/10 01:28:09;;;;;;;1.60;0.90;;;16.60;75.30;;;;;;5054253;28;20045;-67
2022/07/10 01:30:36;;;;;;;3.10;1.15;;;16.50;75.40;;;;;;5051668;28;20131;-69
2022/07/10 01:33:04;;;;;;;3.60;1.25;;;16.50;75.30;;;;;;5056924;28;20048;-70
2022/07/10 01:35:31;;;;;;;2.58;1.10;;;16.40;75.30;;;;;;5055546;28;20065;-68
2022/07/10 01:37:58;;;;;;;1.75;0.90;;;16.40;75.30;;;;;;5057859;28;20046;-68
2022/07/10 01:40:26;;;;;;;2.10;0.95;;;16.40;75.30;;;;;;5053526;28;20043;-69
2022/07/10 01:42:53;;;;;;;2.35;1.00;;;16.40;75.30;;;;;;5057350;28;20052;-70
2022/07/10 01:45:20;;;;;;;4.50;0.90;;;16.40;75.20;;;;;;5055471;28;20491;-68
2022/07/10 01:47:47;;;;;;;3.25;0.90;;;16.40;75.30;;;;;;5053357;28;20052;-69
2022/07/10 01:50:14;;;;;;;2.83;1.00;;;16.30;75.30;;;;;;5052597;28;20114;-71
2022/07/10 01:52:41;;;;;;;3.05;1.00;;;16.20;75.20;;;;;;5058229;28;20387;-69
2022/07/10 01:55:09;;;;;;;1.95;0.95;;;16.20;75.30;;;;;;5056444;28;20044;-69
2022/07/10 01:57:38;;;;;;;3.45;1.10;;;16.20;75.20;;;;;;5057492;28;20044;-70
2022/07/10 02:00:07;;;;;;;2.80;1.45;;;16.20;75.30;;;;;;5055659;28;20049;-67
2022/07/10 02:02:39;;;;;;;1.67;0.77;;;16.10;75.20;;;;;;5056280;28;20045;-70
2022/07/10 02:05:05;;;;;;;2.08;0.90;;;16.10;75.20;;;;;;5053403;28;20048;-70
2022/07/10 02:07:32;;;;;;;2.17;1.15;;;16.00;75.10;;;;;;5048746;28;20051;-70
2022/07/10 02:09:59;;;;;;;2.65;1.00;;;16.00;75.10;;;;;;5052338;28;20485;-70
2022/07/10 02:12:26;;;;;;;4.97;1.00;;;16.00;75.00;;;;;;5056297;28;20051;-70
2022/07/10 02:14:59;;;;;;;3.33;1.20;;;15.90;75.00;;;;;;5049713;28;20043;-69
2022/07/10 02:17:26;;;;;;;1.92;0.82;;;15.90;75.00;;;;;;5055813;28;20044;-70
2022/07/10 02:19:53;;;;;;;3.60;1.40;;;15.90;75.00;;;;;;5049682;28;20052;-68
2022/07/10 02:22:20;;;;;;;2.05;0.95;;;15.80;75.00;;;;;;5056289;28;20402;-70
2022/07/10 02:24:46;;;;;;;1.77;0.90;;;15.80;74.90;;;;;;5055698;28;20051;-71
2022/07/10 02:27:13;;;;;;;2.33;0.95;;;15.80;74.90;;;;;;5058661;28;20060;-69
2022/07/10 02:29:40;;;;;;;1.08;0.70;;;15.70;74.80;;;;;;5057302;28;20045;-68
2022/07/10 02:32:09;;;;;;;2.97;0.93;;;15.70;74.80;;;;;;5054936;28;20486;-70
2022/07/10 02:34:36;;;;;;;1.90;1.08;;;15.70;75.20;;;;;;5055878;28;20083;-70
2022/07/10 02:37:03;;;;;;;5.22;1.23;;;15.60;75.40;;;;;;5055906;28;20037;-68
2022/07/10 02:39:30;;;;;;;2.15;0.88;;;15.60;75.50;;;;;;5057975;28;20044;-70
2022/07/10 02:41:57;;;;;;;2.53;0.95;;;15.60;75.60;;;;;;5055336;28;20052;-70
2022/07/10 02:44:24;;;;;;;2.25;1.00;;;15.60;75.50;;;;;;5057456;28;20075;-70
2022/07/10 02:46:51;;;;;;;2.45;1.08;;;15.60;75.50;;;;;;5052555;28;20120;-71
2022/07/10 02:49:19;;;;;;;3.92;1.20;;;15.50;75.30;;;;;;5058283;28;20131;-68
2022/07/10 02:51:46;;;;;;;1.77;0.90;;;15.50;75.30;;;;;;5054206;28;20146;-69
2022/07/10 02:54:13;;;;;;;1.88;0.70;;;15.40;75.30;;;;;;5057466;28;20477;-70
2022/07/10 02:56:40;;;;;;;2.67;0.93;;;15.40;75.30;;;;;;5055734;28;20110;-70
2022/07/10 02:59:07;;;;;;;3.70;1.00;;;15.40;75.30;;;;;;5058400;28;20064;-68
2022/07/10 03:01:34;;;;;;;3.35;1.08;;;15.40;75.30;;;;;;5053448;28;20065;-68
2022/07/10 03:04:01;;;;;;;2.28;0.80;;;15.30;75.40;;;;;;5057241;28;20049;-68
2022/07/10 03:06:29;;;;;;;2.05;0.88;;;15.30;75.40;;;;;;5055375;28;20075;-69
2022/07/10 03:08:56;;;;;;;2.38;1.00;;;15.20;75.40;;;;;;5057588;28;20059;-69
2022/07/10 03:11:23;;;;;;;1.55;0.75;;;15.20;75.40;;;;;;5056807;28;20061;-71
2022/07/10 03:13:50;;;;;;;1.90;1.05;;;15.20;75.40;;;;;;5058815;28;20073;-68
2022/07/10 03:16:17;;;;;;;1.42;0.80;;;15.10;75.30;;;;;;5058055;28;20057;-69
2022/07/10 03:18:45;;;;;;;1.90;0.77;;;15.10;75.20;;;;;;5049083;28;20053;-68
2022/07/10 03:21:12;;;;;;;3.08;0.93;;;15.10;75.20;;;;;;5047716;28;20060;-68
2022/07/10 03:23:40;;;;;;;2.78;1.00;;;15.10;75.20;;;;;;5050275;28;20040;-68
2022/07/10 03:26:07;;;;;;;3.22;0.88;;;15.10;75.20;;;;;;5053221;28;20053;-69
2022/07/10 03:28:34;;;;;;;1.92;0.75;;;15.00;75.20;;;;;;5048023;28;20053;-69
2022/07/10 03:31:05;;;;;;;2.38;0.88;;;15.00;75.30;;;;;;5054348;28;20513;-69
2022/07/10 03:33:32;;;;;;;1.48;0.70;;;14.90;75.30;;;;;;5055926;28;20395;-69
2022/07/10 03:36:01;;;;;;;1.52;0.95;;;14.90;75.30;;;;;;5059058;28;20137;-69
2022/07/10 03:38:28;;;;;;;1.98;0.98;;;14.90;75.30;;;;;;5039698;28;20453;-70
2022/07/10 03:40:56;;;;;;;3.70;1.00;;;14.80;75.30;;;;;;5052956;28;20044;-68
2022/07/10 03:43:24;;;;;;;2.28;1.00;;;14.80;75.20;;;;;;5055673;28;20424;-68
2022/07/10 03:45:51;;;;;;;1.83;0.70;;;14.80;75.20;;;;;;5051243;28;20150;-69
2022/07/10 03:48:18;;;;;;;1.90;0.82;;;14.70;75.00;;;;;;5048624;28;20060;-68
2022/07/10 03:50:45;;;;;;;2.60;1.08;;;14.70;75.00;;;;;;5054024;28;20055;-69
2022/07/10 03:53:12;;;;;;;5.65;0.82;;;14.70;75.10;;;;;;5049291;28;20052;-69
2022/07/10 03:55:39;;;;;;;1.45;0.57;;;14.70;74.90;;;;;;5047841;28;20048;-71
2022/07/10 03:58:06;;;;;;;2.05;0.90;;;14.70;74.80;;;;;;5050239;28;20056;-71
2022/07/10 04:00:34;;;;;;;2.50;0.77;;;14.60;75.00;;;;;;5048821;28;20099;-70
2022/07/10 04:03:03;;;;;;;2.25;0.80;;;14.60;75.20;;;;;;5050964;28;20578;-68
2022/07/10 04:05:31;;;;;;;1.83;0.63;;;14.50;75.30;;;;;;5053995;28;20049;-69
2022/07/10 04:07:59;;;;;;;2.40;0.85;;;14.60;75.20;;;;;;5056216;28;20173;-70
2022/07/10 04:10:26;;;;;;;3.30;0.80;;;14.50;75.30;;;;;;5053935;28;20045;-69
2022/07/10 04:12:53;;;;;;;2.53;1.00;;;14.50;75.60;;;;;;5056736;28;20123;-69
2022/07/10 04:15:22;;;;;;;5.25;1.15;;;14.50;75.70;;;;;;5058252;28;20049;-69
2022/07/10 04:17:50;;;;;;;3.00;0.77;;;14.50;75.60;;;;;;5057056;28;20059;-69
2022/07/10 04:20:17;;;;;;;3.30;0.57;;;14.60;75.60;;;;;;5071296;28;20123;-69
2022/07/10 04:22:44;;;;;;;2.15;0.70;;;14.60;75.50;;;;;;5056892;28;20080;-69
2022/07/10 04:25:12;;;;;;;0.88;0.50;;;14.60;75.50;;;;;;5059727;28;20060;-68
2022/07/10 04:27:39;;;;;;;3.83;0.60;;;14.60;75.40;;;;;;5057423;28;20041;-69
2022/07/10 04:30:07;;;;;;;1.83;0.60;;;14.60;75.50;;;;;;5051926;28;20079;-70
2022/07/10 04:32:36;;;;;;;1.13;0.50;;;14.60;75.50;;;;;;5050817;28;20051;-68
2022/07/10 04:35:04;;;;;;;2.95;0.68;;;14.60;75.40;;;;;;5052433;28;20050;-69
2022/07/10 04:37:31;;;;;;;1.30;1.02;;;14.70;75.40;;;;;;5054538;28;20049;-72
2022/07/10 04:39:58;;;;;;;1.30;0.47;;;14.70;75.30;;;;;;5055645;28;20047;-70
2022/07/10 04:42:25;;;;;;;1.13;0.50;;;14.70;75.30;;;;;;5057936;28;20048;-67
2022/07/10 04:44:52;;;;;;;2.40;0.73;;;14.70;75.20;;;;;;5054740;28;20048;-71
2022/07/10 04:47:19;;;;;;;0.90;0.47;;;14.70;75.20;;;;;;5054191;28;20511;-70
2022/07/10 04:49:48;;;;;;;2.30;0.52;;;14.60;75.40;;;;;;5056514;28;20040;-69
2022/07/10 04:52:15;;;;;;;3.33;1.00;;;14.70;75.40;;;;;;5057121;28;20049;-70
2022/07/10 04:54:42;;;;;;;0.98;0.50;;;14.70;75.40;;;;;;5054328;28;20051;-69
2022/07/10 04:57:08;;;;;;;3.47;0.68;;;14.70;75.40;;;;;;5055972;28;20056;-68
2022/07/10 04:59:35;;;;;;;3.17;0.90;;;14.70;75.40;;;;;;5057220;28;20044;-69
2022/07/10 05:02:03;;;;;;;1.65;0.60;;;14.70;75.40;;;;;;5053595;28;20057;-69
2022/07/10 05:04:30;;;;;;;1.83;1.13;;;14.70;75.50;;;;;;5056160;28;20049;-72
2022/07/10 05:06:58;;;;;;;2.10;0.60;;;14.60;75.60;;;;;;5054954;28;20056;-71
2022/07/10 05:09:25;;;;;;;1.33;0.55;;;14.60;75.70;;;;;;5056279;28;20044;-71
2022/07/10 05:11:52;;;;;;;2.13;0.60;;;14.60;75.70;;;;;;5057349;28;20041;-69
2022/07/10 05:14:18;;;;;;;1.70;0.50;;;14.60;75.80;;;;;;5055212;28;20080;-70
2022/07/10 05:16:45;;;;;;;3.60;0.90;;;14.70;75.80;;;;;;5056789;28;20462;-69
2022/07/10 05:19:12;;;;;;;2.35;1.00;;;14.80;75.70;;;;;;5058649;28;20045;-71
2022/07/10 05:21:39;;;;;;;1.17;0.50;;;14.80;75.60;;;;;;5057113;28;20040;-71
2022/07/10 05:24:07;;;;;;;2.17;0.80;;;14.90;75.70;;;;;;5057774;28;20048;-71
2022/07/10 05:26:36;;;;;;;1.55;0.80;;;14.90;75.70;;;;;;5056769;28;20060;-71
2022/07/10 05:29:03;;;;;;;2.25;0.70;;;14.90;75.70;;;;;;5059046;28;20054;-71
2022/07/10 05:31:30;;;;;;;2.15;0.40;;;15.00;75.20;;;;;;5050051;28;20052;-70
2022/07/10 05:33:56;;;;;;;1.38;0.52;;;15.10;75.10;;;;;;5058674;28;20056;-71
2022/07/10 05:36:24;;;;;;;2.75;0.68;;;15.10;75.20;;;;;;5055992;28;20053;-70
2022/07/10 05:38:51;;;;;;;1.00;0.47;;;15.10;75.00;;;;;;5051639;28;20045;-71
2022/07/10 05:41:19;;;;;;;0.73;0.40;;;15.10;75.00;;;;;;5058700;28;20413;-71
2022/07/10 05:43:46;;;;;;;1.48;0.50;;;15.10;74.80;;;;;;5058255;28;20037;-69
2022/07/10 05:46:13;;;;;;;2.38;0.47;;;15.10;74.70;;;;;;5055194;28;20055;-69
2022/07/10 05:48:41;;;;;;;3.80;0.50;;;15.20;74.30;;;;;;5056350;28;20436;-70
2022/07/10 05:51:08;;;;;;;0.70;0.35;;;15.20;74.10;;;;;;5059559;28;20033;-69
2022/07/10 05:53:35;;;;;;;3.03;0.70;;;15.20;73.60;;;;;;5058013;28;20140;-70
2022/07/10 05:56:02;;;;;;;1.90;0.50;;;15.30;72.90;;;;;;5056121;28;20048;-71
2022/07/10 05:58:30;;;;;;;3.13;0.50;;;15.30;72.80;;;;;;5058100;28;20056;-69
2022/07/10 06:00:57;;;;;;;1.75;0.70;;;15.30;72.40;;;;;;5054243;28;20049;-72
2022/07/10 06:03:25;;;;;;;2.22;0.70;;;15.30;72.50;;;;;;5058392;28;20049;-70
2022/07/10 06:05:52;;;;;;;1.15;0.40;;;15.40;72.20;;;;;;5057551;28;20045;-70
2022/07/10 06:08:19;;;;;;;4.03;0.45;;;15.50;71.70;;;;;;5058881;28;20056;-70
2022/07/10 06:10:46;;;;;;;3.72;0.60;;;15.50;70.90;;;;;;5052003;28;20048;-73
2022/07/10 06:13:13;;;;;;;1.52;0.45;;;15.60;70.40;;;;;;5055448;28;20130;-69
2022/07/10 06:15:41;;;;;;;4.03;0.70;;;15.60;70.00;;;;;;5056618;28;20537;-71
2022/07/10 06:18:08;;;;;;;3.92;0.52;;;15.60;68.90;;;;;;5057877;28;20041;-69
2022/07/10 06:20:35;;;;;;;2.10;0.40;;;15.70;68.40;;;;;;5057705;28;20072;-69
2022/07/10 06:23:02;;;;;;;2.03;0.70;;;15.80;67.90;;;;;;5050658;28;20135;-69
2022/07/10 06:25:29;;;;;;;0.50;0.30;;;15.90;67.80;;;;;;5053088;28;20100;-70
2022/07/10 06:27:56;;;;;;;3.42;0.45;;;16.00;67.40;;;;;;5051769;28;20064;-69
2022/07/10 06:30:23;;;;;;;2.90;0.65;;;16.10;67.10;;;;;;5056106;28;20053;-70
2022/07/10 06:32:51;;;;;;;0.98;0.30;;;16.10;67.00;;;;;;5056539;28;20048;-69
2022/07/10 06:35:18;;;;;;;1.58;0.25;;;16.20;67.00;;;;;;5056086;28;20048;-69
2022/07/10 06:37:45;;;;;;;1.33;0.25;;;16.30;66.10;;;;;;5056857;28;20049;-69
2022/07/10 06:40:15;;;;;;;3.83;0.45;;;16.40;65.60;;;;;;5056247;28;20049;-70
2022/07/10 06:42:41;;;;;;;4.90;0.50;;;16.50;65.20;;;;;;5056511;28;20041;-69
2022/07/10 06:45:11;;;;;;;1.55;0.30;;;16.50;65.60;;;;;;5059435;28;20451;-69
2022/07/10 06:47:55;;;;;;;1.80;0.40;;;16.60;65.30;;;;;;5061616;28;20453;-68
2022/07/10 06:50:26;;;;;;;1.65;0.50;;;16.60;64.10;;;;;;5063685;28;20155;-71
2022/07/10 06:52:53;;;;;;;1.55;0.40;;;16.60;63.70;;;;;;5062312;28;20045;-72
2022/07/10 06:55:21;;;;;;;1.63;0.40;;;16.60;63.80;;;;;;5062703;28;20498;-70
2022/07/10 06:57:48;;;;;;;3.67;0.55;;;16.60;63.90;;;;;;5064783;28;20410;-70
2022/07/10 07:00:16;;;;;;;3.75;0.52;;;16.60;63.10;;;;;;5062800;28;20056;-70
2022/07/10 07:02:43;;;;;;;0.95;0.40;;;16.70;63.60;;;;;;5062446;28;20072;-71
2022/07/10 07:05:10;;;;;;;3.28;0.38;;;16.60;62.60;;;;;;5052856;28;20057;-72
2022/07/10 07:07:39;;;;;;;0.98;0.30;;;16.70;63.50;;;;;;5051531;28;20039;-72
2022/07/10 07:10:07;;;;;;;1.02;0.30;;;16.70;62.80;;;;;;5054305;28;20053;-69
2022/07/10 07:12:34;;;;;;;2.05;0.57;;;16.70;63.00;;;;;;5057213;28;20045;-69
2022/07/10 07:15:01;;;;;;;1.52;0.68;;;16.70;63.40;;;;;;5060265;28;20044;-71
2022/07/10 07:17:34;;;;;;;3.67;0.63;;;16.80;63.40;;;;;;5077176;28;20049;-70
2022/07/10 07:25:32;;;;;;;1.42;0.65;;;16.80;62.00;;;;;;5062455;28;20132;-70
2022/07/10 07:27:59;;;;;;;1.17;0.30;;;16.80;62.70;;;;;;5064891;28;20048;-70
2022/07/10 07:30:26;;;;;;;1.90;0.45;;;16.90;62.80;;;;;;5063910;28;20136;-70
2022/07/10 07:32:53;;;;;;;2.40;0.50;;;16.80;62.60;;;;;;5063131;28;20045;-67
2022/07/10 07:35:20;;;;;;;1.58;0.55;;;16.80;63.10;;;;;;5054935;28;20049;-70
2022/07/10 07:37:50;;;;;;;4.28;1.15;;;16.80;62.80;;;;;;5060048;28;20431;-70
2022/07/10 07:40:22;;;;;;;3.58;0.65;;;16.90;62.80;;;;;;5058099;28;20100;-71
2022/07/10 07:42:49;;;;;;;2.10;0.43;;;16.90;62.90;;;;;;5058213;28;20147;-70
2022/07/10 07:45:16;;;;;;;2.58;0.40;;;16.90;63.10;;;;;;5056209;28;20060;-70
2022/07/10 07:47:45;;;;;;;1.65;0.40;;;16.90;62.80;;;;;;5059344;28;20045;-70
2022/07/10 07:50:12;;;;;;;3.90;0.95;;;16.90;62.80;;;;;;5050420;28;20053;-69
2022/07/10 07:52:39;;;;;;;2.03;0.70;;;16.90;63.30;;;;;;5050261;28;20459;-69
2022/07/10 07:55:09;;;;;;;4.00;0.65;;;16.90;63.40;;;;;;5047966;28;20048;-69
2022/07/10 07:57:37;;;;;;;1.35;0.52;;;17.00;63.20;;;;;;5047325;28;20041;-68
2022/07/10 08:00:06;;;;;;;2.25;0.40;;;17.00;62.80;;;;;;5047435;28;20041;-65
2022/07/10 08:02:39;;;;;;;1.70;0.68;;;17.10;62.60;;;;;;5049836;28;20090;-67
2022/07/10 08:05:07;;;;;;;2.15;0.65;;;17.10;62.50;;;;;;5046354;28;20506;-68
2022/07/10 08:07:35;;;;;;;1.95;0.40;;;17.10;62.50;;;;;;5056868;28;20065;-67
2022/07/10 08:10:03;;;;;;;0.95;0.30;;;17.10;62.50;;;;;;5056184;28;20115;-68
2022/07/10 08:12:32;;;;;;;1.83;0.65;;;17.20;62.50;;;;;;5049905;28;20045;-69
2022/07/10 08:14:59;;;;;;;0.82;0.30;;;17.20;62.30;;;;;;5056189;28;20057;-70
2022/07/10 08:17:26;;;;;;;4.95;0.60;;;17.40;62.00;;;;;;5054728;28;20505;-69
2022/07/10 08:19:53;;;;;;;3.95;0.50;;;17.40;61.70;;;;;;5058736;28;20049;-68
2022/07/10 08:22:20;;;;;;;4.82;0.50;;;17.30;61.40;;;;;;5049449;28;20053;-71
2022/07/10 08:24:47;;;;;;;1.92;0.38;;;17.30;61.10;;;;;;5049183;28;20055;-69
2022/07/10 08:27:14;;;;;;;2.97;0.85;;;17.40;60.80;;;;;;5047463;28;20056;-69
2022/07/10 08:29:42;;;;;;;1.20;0.30;;;17.40;61.40;;;;;;5049626;28;20045;-70
2022/07/10 08:32:09;;;;;;;2.47;0.35;;;17.50;60.90;;;;;;5047775;28;20045;-71
2022/07/10 08:34:36;;;;;;;0.90;0.30;;;17.50;60.80;;;;;;5047967;28;20136;-69
2022/07/10 08:37:03;;;;;;;2.00;0.90;;;17.50;61.00;;;;;;5048467;28;20045;-68
2022/07/10 08:39:31;;;;;;;2.50;0.50;;;17.60;61.00;;;;;;5057370;28;20051;-70
2022/07/10 08:41:58;;;;;;;5.00;0.70;;;17.60;61.40;;;;;;5054574;28;20048;-70
2022/07/10 08:44:25;;;;;;;1.73;0.40;;;17.60;61.50;;;;;;5053007;28;20487;-70
2022/07/10 08:46:53;;;;;;;5.63;0.32;;;17.60;61.90;;;;;;5054894;28;20079;-72
2022/07/10 08:49:26;;;;;;;3.10;0.55;;;17.60;62.10;;;;;;5055177;28;20090;-69
2022/07/10 08:51:58;;;;;;;1.13;0.40;;;17.60;62.20;;;;;;5044749;28;20045;-67
2022/07/10 08:54:28;;;;;;;2.08;0.38;;;17.70;62.10;;;;;;5049653;28;20474;-71
2022/07/10 08:56:56;;;;;;;;;;;17.60;61.70;;;;;;5047185;28;20045;-70
2022/07/10 08:59:23;;;;;;;2.78;0.40;;;17.60;61.20;;;;;;5048188;28;19951;-71
2022/07/10 09:01:50;;;;;;;2.38;0.50;;;17.60;61.20;;;;;;5047099;28;20060;-69
2022/07/10 09:04:20;;;;;;;2.53;0.63;;;17.70;61.40;;;;;;5052416;28;20102;-70
2022/07/10 09:06:47;;;;;;;1.95;0.47;;;17.80;61.30;;;;;;5047541;28;20041;-71
2022/07/10 09:09:14;;;;;;;0.85;0.60;;;17.80;61.20;;;;;;5055808;28;20048;-69
2022/07/10 09:11:42;;;;;;;2.78;0.90;;;17.90;61.20;;;;;;5055892;28;20049;-69
2022/07/10 09:14:11;;;;;;;3.15;0.98;;;17.80;60.90;;;;;;5060413;28;20045;-71
2022/07/10 09:16:40;;;;;;;3.72;1.02;;;17.80;61.10;;;;;;5053815;28;20042;-68
2022/07/10 09:19:19;;;;;;;2.97;0.55;;;17.80;60.70;;;;;;5047520;28;20409;-68
2022/07/10 09:21:48;;;;;;;1.83;0.43;;;17.90;60.00;;;;;;5061338;28;20049;-69
2022/07/10 09:24:17;;;;;;;3.20;0.38;;;17.90;59.50;;;;;;5047668;28;20049;-71
2022/07/10 09:26:44;;;;;;;2.28;0.47;;;18.00;59.90;;;;;;5049202;28;20064;-69
2022/07/10 09:29:12;;;;;;;2.35;0.43;;;17.90;59.10;;;;;;5047189;28;20055;-69
2022/07/10 09:31:53;;;;;;;4.18;0.70;;;17.90;58.60;;;;;;5045526;28;20061;-67
2022/07/10 09:34:37;;;;;;;3.72;0.40;;;17.80;59.00;;;;;;5047341;28;20052;-69
2022/07/10 09:37:21;;;;;;;3.05;0.30;;;17.80;58.80;;;;;;5046746;28;20090;-69
2022/07/10 09:39:53;;;;;;;2.63;0.52;;;17.80;58.90;;;;;;5046533;28;20094;-70
2022/07/10 09:42:32;;;;;;;2.45;0.60;;;17.70;58.50;;;;;;5052076;28;20556;-69
2022/07/10 09:45:17;;;;;;;1.40;0.40;;;17.70;58.70;;;;;;5053163;28;20041;-68
2022/07/10 09:47:45;;;;;;;2.28;0.20;;;17.60;59.00;;;;;;5053565;28;20053;-69
2022/07/10 09:50:26;;;;;;;2.95;0.60;;;17.70;59.20;;;;;;5049751;28;20052;-68
2022/07/10 09:52:54;;;;;;;1.85;0.50;;;17.90;59.60;;;;;;5053557;28;20099;-69
2022/07/10 09:55:24;;;;;;;2.95;0.43;;;18.00;59.60;;;;;;5048718;28;20106;-69
2022/07/10 09:57:53;;;;;;;;;;;18.10;59.70;;;;;;5044571;28;20073;-70
2022/07/10 10:00:25;;;;;;;3.58;0.63;;;18.20;59.70;;;;;;5045157;28;19974;-70
2022/07/10 10:02:54;;;;;;;3.25;0.82;;;18.30;59.70;;;;;;5046770;28;20045;-71
2022/07/10 10:05:29;;;;;;;2.40;0.98;;;18.50;59.60;;;;;;5045770;28;20039;-69
2022/07/10 10:07:57;;;;;;;3.03;1.25;;;18.60;59.70;;;;;;5041082;28;20095;-66
2022/07/10 10:10:25;;;;;;;3.25;1.17;;;18.70;59.50;;;;;;5045684;28;20110;-69
2022/07/10 10:12:59;;;;;;;4.43;1.45;;;18.80;59.30;;;;;;5047008;28;20501;-71
2022/07/10 10:15:27;;;;;;;2.22;0.60;;;18.80;58.60;;;;;;5054605;28;20045;-70
2022/07/10 10:17:55;;;;;;;1.92;0.65;;;18.90;58.30;;;;;;5053271;28;20573;-69
2022/07/10 10:20:41;;;;;;;2.67;0.80;;;18.90;57.10;;;;;;5052211;28;20060;-69
2022/07/10 10:23:11;;;;;;;3.05;0.60;;;18.90;57.40;;;;;;5054432;28;20066;-70
2022/07/10 10:25:39;;;;;;;3.25;0.65;;;19.00;57.80;;;;;;5050415;28;20057;-68
2022/07/10 10:28:09;;;;;;;1.80;0.47;;;19.10;57.30;;;;;;5056880;28;20041;-69
2022/07/10 10:30:39;;;;;;;2.72;0.65;;;19.10;57.50;;;;;;5059002;28;20132;-72
2022/07/10 10:33:45;;;;;;;3.53;0.70;;;19.20;57.30;;;;;;5055693;28;20049;-69
2022/07/10 10:36:14;;;;;;;1.92;0.30;;;19.40;56.60;;;;;;5058436;28;20064;-69
2022/07/10 10:39:01;;;;;;;2.03;0.45;;;19.60;56.20;;;;;;5058238;28;20049;-71
2022/07/10 10:41:31;;;;;;;1.52;0.30;;;19.70;55.20;;;;;;5057476;28;20077;-69
2022/07/10 10:44:21;;;;;;;2.03;0.38;;;19.80;56.10;;;;;;5056665;28;20131;-69
2022/07/10 10:47:05;;;;;;;2.03;0.40;;;19.90;55.50;;;;;;5056536;28;20044;-68
2022/07/10 10:49:52;;;;;;;3.17;0.50;;;19.90;55.20;;;;;;5056645;28;20044;-68
2022/07/10 10:52:21;;;;;;;1.83;0.80;;;20.10;55.70;;;;;;5057068;28;20563;-71
2022/07/10 10:55:04;;;;;;;1.27;0.30;;;20.20;55.60;;;;;;5051224;28;20052;-72
2022/07/10 10:57:43;;;;;;;2.55;0.50;;;20.30;54.90;;;;;;5048273;28;20052;-72
2022/07/10 11:00:15;;;;;;;3.45;0.68;;;20.30;53.70;;;;;;5045163;28;20406;-71
2022/07/10 11:02:42;;;;;;;2.95;0.40;;;20.20;53.60;;;;;;5049168;28;20145;-69
2022/07/10 11:05:43;;;;;;;2.08;0.40;;;20.20;53.10;;;;;;5049197;28;20056;-69
2022/07/10 11:08:12;;;;;;;1.48;0.60;;;20.30;53.80;;;;;;5056719;28;20049;-70
2022/07/10 11:10:41;;;;;;;1.80;0.40;;;20.30;53.40;;;;;;5050877;28;20071;-69
2022/07/10 11:13:10;;;;;;;;;;;20.40;53.80;;;;;;5050022;28;20043;-70
2022/07/10 11:15:38;;;;;;;1.77;0.52;;;20.40;53.10;;;;;;5048064;28;19925;-70
2022/07/10 11:18:07;;;;;;;4.57;0.47;;;20.50;53.00;;;;;;5047867;28;20041;-70
2022/07/10 11:20:35;;;;;;;2.33;0.40;;;20.50;52.30;;;;;;5053046;28;20053;-70
2022/07/10 11:23:54;;;;;;;1.50;0.45;;;20.40;52.10;;;;;;5043952;28;20041;-70
2022/07/10 11:26:31;;;;;;;1.23;0.40;;;20.30;52.40;;;;;;5000481;28;20153;-71
2022/07/10 11:29:02;;;;;;;3.08;0.50;;;20.30;52.10;;;;;;5007078;28;20132;-69
2022/07/10 11:31:31;;;;;;;0.73;0.30;;;20.40;52.00;;;;;;5029849;28;20060;-72
2022/07/10 11:33:58;;;;;;;2.67;0.45;;;20.60;52.20;;;;;;5049776;28;20048;-70
2022/07/10 11:36:28;;;;;;;1.85;0.45;;;20.80;52.00;;;;;;5050158;28;20094;-69
2022/07/10 11:39:01;;;;;;;3.13;0.40;;;20.90;51.80;;;;;;5053242;28;20136;-70
2022/07/10 11:41:29;;;;;;;1.13;0.30;;;21.10;52.20;;;;;;5054527;28;20041;-68
2022/07/10 11:43:58;;;;;;;2.10;0.40;;;21.10;51.90;;;;;;5051509;28;20058;-71
2022/07/10 11:46:26;;;;;;;2.75;0.30;;;21.00;51.90;;;;;;5047070;28;20055;-67
2022/07/10 11:48:56;;;;;;;2.28;0.40;;;21.00;52.10;;;;;;5045713;28;20181;-69
2022/07/10 11:51:25;;;;;;;1.85;0.40;;;21.00;51.80;;;;;;5048324;28;20525;-67
2022/07/10 11:54:04;;;;;;;3.40;0.45;;;21.00;51.50;;;;;;5047730;28;20050;-71
2022/07/10 11:56:33;;;;;;;0.25;0.20;;;21.00;51.30;;;;;;5046499;28;20138;-71
2022/07/10 11:59:01;;;;;;;2.90;0.77;;;21.00;50.90;;;;;;5057067;28;20044;-70
2022/07/10 12:01:30;;;;;;;0.88;0.40;;;21.10;51.00;;;;;;5051969;28;20051;-70
2022/07/10 12:04:02;;;;;;;2.63;0.47;;;21.10;50.50;;;;;;5056301;28;20102;-71
2022/07/10 12:06:30;;;;;;;2.83;0.52;;;21.10;50.30;;;;;;5056198;28;20055;-69
2022/07/10 12:08:57;;;;;;;1.10;0.40;;;21.10;49.30;;;;;;5056376;28;20136;-70
2022/07/10 12:11:25;;;;;;;0.63;0.20;;;21.30;49.80;;;;;;5049331;28;20048;-69
2022/07/10 12:13:54;;;;;;;0.52;0.38;;;21.30;49.80;;;;;;5062513;28;20053;-71
2022/07/10 12:16:22;;;;;;;1.83;0.50;;;21.40;50.30;;;;;;5053812;28;20061;-71
2022/07/10 12:18:50;;;;;;;2.13;0.70;;;21.50;49.80;;;;;;5060562;28;20442;-72
2022/07/10 12:21:17;;;;;;;3.47;0.70;;;21.40;49.70;;;;;;5055628;28;20053;-70
2022/07/10 12:23:48;;;;;;;0.85;0.50;;;21.40;49.00;;;;;;5057858;28;20127;-69
2022/07/10 12:26:16;;;;;;;2.30;0.45;;;21.30;49.00;;;;;;5058082;28;20167;-70
2022/07/10 12:28:53;;;;;;;2.20;0.80;;;21.30;49.30;;;;;;5053775;28;20049;-69
2022/07/10 12:31:24;;;;;;;1.13;0.40;;;21.30;49.10;;;;;;5055310;28;20044;-70
2022/07/10 12:33:57;;;;;;;0.95;0.30;;;21.50;49.00;;;;;;5052461;28;20077;-71
2022/07/10 12:36:24;;;;;;;1.33;0.40;;;21.60;48.60;;;;;;5057423;28;20131;-72
2022/07/10 12:38:57;;;;;;;2.00;0.43;;;21.80;47.90;;;;;;5051867;28;20047;-70
2022/07/10 12:41:25;;;;;;;3.03;0.40;;;22.00;48.50;;;;;;5051857;28;20093;-69
2022/07/10 12:43:54;;;;;;;1.90;0.50;;;22.00;47.60;;;;;;5046796;28;20495;-71
2022/07/10 12:46:22;;;;;;;0.98;0.40;;;22.00;47.80;;;;;;5053723;28;20053;-71
2022/07/10 12:49:08;;;;;;;2.40;0.40;;;22.00;47.40;;;;;;5049285;28;20041;-69
2022/07/10 12:51:45;;;;;;;2.95;0.43;;;22.00;47.10;;;;;;5048471;28;20049;-69
2022/07/10 12:54:33;;;;;;;3.60;0.68;;;21.90;47.40;;;;;;5047670;28;20060;-70
2022/07/10 12:57:01;;;;;;;1.73;0.60;;;21.90;47.50;;;;;;5045661;28;20053;-68
2022/07/10 12:59:29;;;;;;;3.53;0.47;;;21.90;47.50;;;;;;5054757;28;20066;-71
2022/07/10 13:01:56;;;;;;;1.63;0.40;;;21.90;47.50;;;;;;5048282;28;20055;-69
2022/07/10 13:04:27;;;;;;;2.53;0.32;;;21.70;47.80;;;;;;5054247;28;20045;-71